University Oxford Airport Oxford US
ICAO: KUOX
IATA: UOX
Category: Medium
Scheduled Services: No

Elevation: 452 ft
TransAlt. 18000 ft.

Airport Communications:
AWOS 3:132.725
MEMPHIS CNTR:128.5
CTAF/UNICOM:123

KUOX Zoom In..

If you have problems with the map follow the link
https://www.worldairports.se/pages/airport.php?
ICAO=KUOX

Runways:

(A) RW 09 length 5600 ft width 100 ft
LOC 111.70 / hdg 90

(B) RW 27 length 5600 ft width 100 ft
LOC 111.70 / hdg 270

Location; KUOX
Day. 06 / Time. 02.35 Zulu
* Altimeter: 30.08
* Temperature: 12° c. 53.6°f.
* Wind from: 150° Speed 07 kn.
Dewpoint: 03° c.
Visibility: 10 Statute Miles.
Clouds: Few 7500 ft.
Clouds: Few 9500 ft.
Clouds: Broken 11000 ft.

KUOX 060235Z AUTO 15007KT 10SM FEW075 FEW095 BKN110 12/03 A3008 RMK AO2


Wind From 150°
Speed 07 kn.

 
 
jpsmedia worldairports.se 2019   terms of use